createdAt,value
2018-09-10T00:01:20.723Z,12.06
2018-09-10T00:03:47.961Z,12.19
2018-09-10T00:06:15.111Z,12.30
2018-09-10T00:08:44.705Z,12.56
2018-09-10T00:11:11.868Z,12.41
2018-09-10T00:13:39.096Z,12.59
2018-09-10T00:16:06.513Z,12.39
2018-09-10T00:18:33.680Z,12.45
2018-09-10T00:21:00.792Z,12.02
2018-09-10T00:23:27.951Z,12.17
2018-09-10T00:25:55.196Z,12.01
2018-09-10T00:28:22.420Z,11.73
2018-09-10T00:30:49.915Z,11.37
2018-09-10T00:33:17.116Z,11.64
2018-09-10T00:35:44.262Z,11.80
2018-09-10T00:38:11.477Z,11.69
2018-09-10T00:40:38.676Z,11.50
2018-09-10T00:43:05.817Z,11.80
2018-09-10T00:45:32.924Z,11.82
2018-09-10T00:48:00.071Z,11.66
2018-09-10T00:50:27.218Z,11.20
2018-09-10T00:52:54.588Z,11.70
2018-09-10T00:55:21.938Z,11.30
2018-09-10T00:57:49.117Z,11.40
2018-09-10T01:00:16.341Z,11.58
2018-09-10T01:02:44.012Z,11.77
2018-09-10T01:05:11.225Z,11.27
2018-09-10T01:07:38.461Z,11.56
2018-09-10T01:10:05.564Z,11.52
2018-09-10T01:12:32.646Z,11.30
2018-09-10T01:14:59.905Z,11.61
2018-09-10T01:17:26.992Z,11.65
2018-09-10T01:19:54.436Z,11.91
2018-09-10T01:22:21.609Z,11.69
2018-09-10T01:24:55.525Z,11.55
2018-09-10T01:27:22.787Z,11.53
2018-09-10T01:29:49.980Z,11.47
2018-09-10T01:32:17.137Z,11.10
2018-09-10T01:34:50.112Z,10.83
2018-09-10T01:37:17.286Z,10.86
2018-09-10T01:39:44.547Z,11.18
2018-09-10T01:42:11.628Z,11.16
2018-09-10T01:44:38.747Z,11.25
2018-09-10T01:47:06.020Z,11.19
2018-09-10T01:49:33.154Z,11.17
2018-09-10T01:52:00.292Z,11.05
2018-09-10T01:54:27.455Z,11.10
2018-09-10T01:56:54.640Z,11.10
2018-09-10T01:59:21.838Z,11.12
2018-09-10T02:01:49.158Z,10.86
2018-09-10T02:04:16.329Z,10.90
2018-09-10T02:06:43.613Z,11.14
2018-09-10T02:09:10.814Z,11.05
2018-09-10T02:11:37.956Z,11.07
2018-09-10T02:14:05.432Z,11.14
2018-09-10T02:16:32.532Z,11.21
2018-09-10T02:18:59.641Z,11.23
2018-09-10T02:21:26.828Z,11.16
2018-09-10T02:23:53.936Z,10.74
2018-09-10T02:26:21.224Z,10.90
2018-09-10T02:28:48.443Z,10.93
2018-09-10T02:31:15.608Z,10.76
2018-09-10T02:33:42.940Z,10.81
2018-09-10T02:36:10.096Z,10.68
2018-09-10T02:38:37.316Z,10.74
2018-09-10T02:41:04.729Z,10.82
2018-09-10T02:43:31.897Z,10.60
2018-09-10T02:45:59.050Z,10.39
2018-09-10T02:48:26.336Z,9.76
2018-09-10T02:50:53.485Z,9.73
2018-09-10T02:53:20.745Z,9.95
2018-09-10T02:55:48.009Z,9.68
2018-09-10T02:58:15.189Z,9.51
2018-09-10T03:00:42.444Z,9.67
2018-09-10T03:03:09.640Z,9.94
2018-09-10T03:05:36.853Z,10.05
2018-09-10T03:08:04.178Z,10.18
2018-09-10T03:10:31.364Z,10.39
2018-09-10T03:12:58.534Z,10.41
2018-09-10T03:15:25.789Z,10.35
2018-09-10T03:17:52.955Z,10.17
2018-09-10T03:20:20.280Z,9.97
2018-09-10T03:22:47.512Z,10.10
2018-09-10T03:25:14.628Z,10.16
2018-09-10T03:27:41.810Z,10.17
2018-09-10T03:30:09.095Z,10.18
2018-09-10T03:32:36.208Z,9.53
2018-09-10T03:35:03.927Z,9.43
2018-09-10T03:37:31.177Z,9.26
2018-09-10T03:39:58.328Z,9.60
2018-09-10T03:42:25.598Z,9.89
2018-09-10T03:44:52.740Z,9.95
2018-09-10T03:47:19.931Z,9.72
2018-09-10T03:49:47.749Z,9.73
2018-09-10T03:52:14.871Z,9.91
2018-09-10T03:54:42.060Z,9.59
2018-09-10T03:57:09.241Z,9.83
2018-09-10T03:59:36.398Z,9.94
2018-09-10T04:02:03.662Z,10.08
2018-09-10T04:04:30.848Z,10.14
2018-09-10T04:06:57.996Z,10.23
2018-09-10T04:09:25.277Z,10.24
2018-09-10T04:11:52.402Z,10.02
2018-09-10T04:14:19.549Z,9.85
2018-09-10T04:16:46.652Z,9.78
2018-09-10T04:19:13.956Z,9.57
2018-09-10T04:21:41.116Z,9.86
2018-09-10T04:24:08.253Z,9.68
2018-09-10T04:26:35.376Z,9.55
2018-09-10T04:29:02.588Z,9.59
2018-09-10T04:31:29.912Z,9.83
2018-09-10T04:33:57.064Z,9.57
2018-09-10T04:36:24.231Z,9.66
2018-09-10T04:38:51.313Z,9.80
2018-09-10T04:41:18.437Z,9.72
2018-09-10T04:43:45.611Z,9.85
2018-09-10T04:46:12.771Z,9.90
2018-09-10T04:48:39.957Z,9.73
2018-09-10T04:51:07.216Z,9.56
2018-09-10T04:53:34.325Z,9.49
2018-09-10T04:56:02.479Z,9.64
2018-09-10T04:58:29.628Z,9.73
2018-09-10T05:00:56.786Z,9.63
2018-09-10T05:03:24.021Z,9.71
2018-09-10T05:05:51.367Z,9.63
2018-09-10T05:08:18.511Z,9.66
2018-09-10T05:10:45.693Z,9.79
2018-09-10T05:13:12.928Z,9.60
2018-09-10T05:15:40.089Z,9.69
2018-09-10T05:18:07.485Z,9.75
2018-09-10T05:20:34.784Z,9.74
2018-09-10T05:23:01.935Z,9.78
2018-09-10T05:25:29.173Z,9.84
2018-09-10T05:28:03.282Z,9.77
2018-09-10T05:30:30.504Z,9.84
2018-09-10T05:32:57.668Z,9.53
2018-09-10T05:35:24.824Z,9.67
2018-09-10T05:37:51.973Z,9.54
2018-09-10T05:40:19.223Z,9.76
2018-09-10T05:42:46.332Z,9.97
2018-09-10T05:45:14.027Z,10.13
2018-09-10T05:47:41.496Z,10.40
2018-09-10T05:50:09.514Z,10.62
2018-09-10T05:52:36.656Z,10.72
2018-09-10T05:55:05.002Z,11.01
2018-09-10T05:57:32.264Z,10.91
2018-09-10T05:59:59.423Z,11.07
2018-09-10T06:02:26.666Z,11.12
2018-09-10T06:04:53.920Z,11.03
2018-09-10T06:07:21.141Z,10.86
2018-09-10T06:09:48.269Z,10.91
2018-09-10T06:12:15.448Z,10.99
2018-09-10T06:14:42.796Z,10.92
2018-09-10T06:17:10.031Z,11.01
2018-09-10T06:19:37.283Z,11.24
2018-09-10T06:22:04.493Z,11.33
2018-09-10T06:24:31.623Z,11.61
2018-09-10T06:26:58.846Z,11.88
2018-09-10T06:29:26.006Z,12.00
2018-09-10T06:31:53.148Z,12.22
2018-09-10T06:34:20.469Z,12.31
2018-09-10T06:36:47.546Z,12.56
2018-09-10T06:39:14.782Z,12.86
2018-09-10T06:41:42.075Z,13.07
2018-09-10T06:44:09.719Z,13.14
2018-09-10T06:46:36.988Z,13.11
2018-09-10T06:49:04.300Z,13.28
2018-09-10T06:51:31.462Z,13.56
2018-09-10T06:53:58.603Z,13.75
2018-09-10T06:56:25.865Z,14.23
2018-09-10T06:58:53.082Z,14.13
2018-09-10T07:01:20.265Z,14.70
2018-09-10T07:03:47.509Z,15.03
2018-09-10T07:06:14.709Z,15.35
2018-09-10T07:08:41.961Z,15.72
2018-09-10T07:11:09.156Z,15.89
2018-09-10T07:13:36.311Z,15.75
2018-09-10T07:16:03.666Z,15.90
2018-09-10T07:18:30.852Z,16.19
2018-09-10T07:20:58.281Z,16.32
2018-09-10T07:23:25.564Z,16.55
2018-09-10T07:25:52.681Z,16.81
2018-09-10T07:28:19.778Z,16.72
2018-09-10T07:30:47.104Z,16.46
2018-09-10T07:33:14.296Z,16.89
2018-09-10T07:35:42.035Z,17.34
2018-09-10T07:38:10.155Z,17.64
2018-09-10T07:40:37.372Z,17.92
2018-09-10T07:43:04.697Z,17.86
2018-09-10T07:45:31.952Z,18.16
2018-09-10T07:47:59.129Z,18.39
2018-09-10T07:50:26.432Z,18.29
2018-09-10T07:52:54.359Z,18.07
2018-09-10T07:55:21.457Z,18.31
2018-09-10T07:57:48.782Z,18.22
2018-09-10T08:00:16.071Z,18.23
2018-09-10T08:02:43.184Z,18.45
2018-09-10T08:05:10.548Z,18.55
2018-09-10T08:07:37.809Z,18.85
2018-09-10T08:10:05.208Z,18.90
2018-09-10T08:12:32.924Z,19.09
2018-09-10T08:15:00.064Z,19.20
2018-09-10T08:17:27.223Z,19.37
2018-09-10T08:19:54.569Z,19.16
2018-09-10T08:22:21.735Z,18.69
2018-09-10T08:24:48.875Z,18.26
2018-09-10T08:27:16.180Z,18.14
2018-09-10T08:29:43.389Z,18.50
2018-09-10T08:32:10.669Z,19.16
2018-09-10T08:34:38.036Z,19.66
2018-09-10T08:37:05.248Z,19.96
2018-09-10T08:39:32.792Z,20.02
2018-09-10T08:42:00.009Z,19.83
2018-09-10T08:44:27.298Z,19.95
2018-09-10T08:46:54.556Z,19.85
2018-09-10T08:49:21.820Z,20.02
2018-09-10T08:51:49.449Z,20.43
2018-09-10T08:54:16.704Z,20.67
2018-09-10T08:56:43.771Z,20.85
2018-09-10T08:59:10.921Z,20.75
2018-09-10T09:01:38.960Z,20.59
2018-09-10T09:04:06.737Z,20.67
2018-09-10T09:06:33.929Z,20.41
2018-09-10T09:09:01.107Z,20.53
2018-09-10T09:11:28.318Z,20.76
2018-09-10T09:13:55.485Z,21.03
2018-09-10T09:16:22.724Z,21.00
2018-09-10T09:18:49.941Z,21.03
2018-09-10T09:21:17.078Z,20.75
2018-09-10T09:23:44.469Z,20.90
2018-09-10T09:26:11.629Z,21.23
2018-09-10T09:28:38.900Z,21.26
2018-09-10T09:31:06.065Z,21.35
2018-09-10T09:33:33.278Z,21.48
2018-09-10T09:36:06.951Z,21.32
2018-09-10T09:38:39.864Z,21.58
2018-09-10T09:41:12.845Z,21.59
2018-09-10T09:43:45.816Z,21.52
2018-09-10T09:46:15.083Z,22.00
2018-09-10T09:48:42.345Z,22.22
2018-09-10T09:51:09.527Z,22.01
2018-09-10T09:53:37.119Z,21.92
2018-09-10T09:56:04.373Z,21.91
2018-09-10T09:58:31.653Z,21.78
2018-09-10T10:01:04.513Z,22.16
2018-09-10T10:03:37.420Z,22.66
2018-09-10T10:06:04.749Z,22.93
2018-09-10T10:08:31.956Z,22.58
2018-09-10T10:10:59.172Z,22.74
2018-09-10T10:13:26.358Z,22.64
2018-09-10T10:15:54.106Z,22.56
2018-09-10T10:18:21.327Z,23.00
2018-09-10T10:20:48.566Z,23.12
2018-09-10T10:23:15.738Z,23.16
2018-09-10T10:25:42.888Z,23.33
2018-09-10T10:28:10.108Z,23.50
2018-09-10T10:30:37.264Z,23.58
2018-09-10T10:33:04.576Z,23.46
2018-09-10T10:35:31.780Z,23.62
2018-09-10T10:37:58.907Z,23.65
2018-09-10T10:40:26.104Z,23.62
2018-09-10T10:42:53.319Z,23.49
2018-09-10T10:45:20.473Z,23.56
2018-09-10T10:47:47.829Z,23.67
2018-09-10T10:50:14.993Z,23.79
2018-09-10T10:52:42.220Z,23.80
2018-09-10T10:55:09.512Z,23.68
2018-09-10T10:57:36.634Z,23.88
2018-09-10T11:00:05.272Z,23.83
2018-09-10T11:02:32.640Z,23.97
2018-09-10T11:04:59.806Z,23.99
2018-09-10T11:07:26.985Z,23.92
2018-09-10T11:09:54.169Z,24.05
2018-09-10T11:12:21.448Z,23.81
2018-09-10T11:14:48.653Z,23.67
2018-09-10T11:17:15.965Z,23.85
2018-09-10T11:19:43.282Z,24.10
2018-09-10T11:22:10.633Z,24.08
2018-09-10T11:24:37.762Z,24.21
2018-09-10T11:27:05.002Z,23.94
2018-09-10T11:29:32.301Z,24.51
2018-09-10T11:31:59.481Z,24.65
2018-09-10T11:34:26.742Z,24.94
2018-09-10T11:36:54.085Z,25.00
2018-09-10T11:39:21.294Z,24.96
2018-09-10T11:41:48.569Z,25.36
2018-09-10T11:44:15.746Z,25.47
2018-09-10T11:46:42.972Z,25.62
2018-09-10T11:49:10.180Z,25.88
2018-09-10T11:51:37.573Z,26.24
2018-09-10T11:54:04.822Z,25.42
2018-09-10T11:56:32.106Z,26.08
2018-09-10T11:58:59.545Z,25.75
2018-09-10T12:01:26.734Z,25.69
2018-09-10T12:03:54.028Z,26.04
2018-09-10T12:06:21.221Z,26.09
2018-09-10T12:08:48.654Z,26.06
2018-09-10T12:11:20.075Z,26.50
2018-09-10T12:13:47.422Z,26.48
2018-09-10T12:16:14.735Z,25.73
2018-09-10T12:18:41.947Z,25.66
2018-09-10T12:21:09.280Z,26.01
2018-09-10T12:23:36.444Z,25.79
2018-09-10T12:26:03.693Z,26.08
2018-09-10T12:28:31.140Z,26.80
2018-09-10T12:30:58.320Z,26.90
2018-09-10T12:33:25.566Z,27.02
2018-09-10T12:35:52.941Z,26.46
2018-09-10T12:38:20.181Z,27.08
2018-09-10T12:40:47.568Z,27.15
2018-09-10T12:43:14.949Z,27.11
2018-09-10T12:45:42.172Z,27.00
2018-09-10T12:48:09.414Z,27.82
2018-09-10T12:50:36.771Z,27.30
2018-09-10T12:53:04.062Z,27.36
2018-09-10T12:55:31.289Z,27.61
2018-09-10T12:57:59.047Z,27.60
2018-09-10T13:00:26.297Z,27.72
2018-09-10T13:02:53.530Z,27.79
2018-09-10T13:05:20.888Z,27.86
2018-09-10T13:07:48.171Z,27.47
2018-09-10T13:10:15.479Z,27.45
2018-09-10T13:12:42.893Z,27.78
2018-09-10T13:15:10.168Z,27.70
2018-09-10T13:17:37.550Z,27.26
2018-09-10T13:20:04.962Z,27.29
2018-09-10T13:22:32.209Z,27.25
2018-09-10T13:24:59.468Z,27.35
2018-09-10T13:27:26.611Z,27.65
2018-09-10T13:29:53.814Z,27.95
2018-09-10T13:32:21.146Z,27.64
2018-09-10T13:34:48.349Z,27.94
2018-09-10T13:37:15.610Z,27.29
2018-09-10T13:39:42.789Z,27.98
2018-09-10T13:42:10.009Z,28.36
2018-09-10T13:44:37.312Z,28.36
2018-09-10T14:00:04.618Z,28.54
2018-09-10T14:02:31.879Z,27.96
2018-09-10T14:04:59.152Z,27.12
2018-09-10T14:07:26.410Z,27.60
2018-09-10T14:09:53.581Z,27.84
2018-09-10T14:12:20.804Z,27.90
2018-09-10T14:14:48.110Z,28.41
2018-09-10T14:17:15.280Z,28.90
2018-09-10T14:19:42.579Z,29.40
2018-09-10T14:22:10.511Z,28.88
2018-09-10T14:24:37.639Z,28.80
2018-09-10T14:27:05.017Z,28.67
2018-09-10T14:29:32.449Z,27.59
2018-09-10T14:31:59.745Z,27.31
2018-09-10T14:34:27.086Z,27.21
2018-09-10T14:36:54.360Z,27.74
2018-09-10T14:39:21.597Z,27.81
2018-09-10T14:41:48.861Z,27.01
2018-09-10T14:44:16.054Z,27.22
2018-09-10T14:46:43.415Z,27.17
2018-09-10T14:49:10.769Z,27.04
2018-09-10T14:51:38.154Z,26.91
2018-09-10T14:54:05.392Z,27.00
2018-09-10T14:56:32.678Z,27.34
2018-09-10T14:58:59.917Z,27.48
2018-09-10T15:01:27.242Z,27.24
2018-09-10T15:03:54.649Z,27.45
2018-09-10T15:06:21.864Z,27.54
2018-09-10T15:08:49.180Z,27.25
2018-09-10T15:11:16.359Z,27.06
2018-09-10T15:13:43.580Z,26.28
2018-09-10T15:16:10.923Z,26.73
2018-09-10T15:18:38.324Z,26.85
2018-09-10T15:21:05.833Z,26.39
2018-09-10T15:23:33.252Z,26.41
2018-09-10T15:26:00.544Z,26.35
2018-09-10T15:28:27.744Z,26.67
2018-09-10T15:30:55.708Z,26.16
2018-09-10T15:33:22.852Z,25.93
2018-09-10T15:35:50.178Z,25.76
2018-09-10T15:38:17.370Z,25.98
2018-09-10T15:40:44.721Z,25.82
2018-09-10T15:43:11.930Z,26.14
2018-09-10T15:45:39.293Z,26.06
2018-09-10T15:48:06.514Z,26.17
2018-09-10T15:50:33.734Z,25.57
2018-09-10T15:53:01.008Z,25.30
2018-09-10T15:55:28.261Z,25.58
2018-09-10T15:57:55.546Z,25.41
2018-09-10T16:00:22.941Z,25.08
2018-09-10T16:02:50.165Z,24.89
2018-09-10T16:05:17.560Z,24.63
2018-09-10T16:07:44.741Z,24.54
2018-09-10T16:10:11.970Z,24.39
2018-09-10T16:12:39.372Z,24.26
2018-09-10T16:15:06.759Z,24.45
2018-09-10T16:17:34.007Z,24.26
2018-09-10T16:20:01.329Z,24.22
2018-09-10T16:22:28.623Z,23.83
2018-09-10T16:24:55.852Z,23.73
2018-09-10T16:27:23.259Z,23.60
2018-09-10T16:29:50.350Z,23.27
2018-09-10T16:32:17.674Z,23.37
2018-09-10T16:34:44.940Z,23.34
2018-09-10T16:37:12.210Z,23.26
2018-09-10T16:39:39.522Z,23.34
2018-09-10T16:42:06.857Z,23.37
2018-09-10T16:44:34.120Z,23.29
2018-09-10T16:47:02.229Z,23.23
2018-09-10T16:49:29.533Z,23.20
2018-09-10T16:51:56.766Z,23.17
2018-09-10T16:54:24.073Z,22.42
2018-09-10T16:56:51.309Z,22.86
2018-09-10T16:59:18.567Z,22.87
2018-09-10T17:01:45.974Z,22.87
2018-09-10T17:04:13.397Z,22.76
2018-09-10T17:06:40.649Z,22.76
2018-09-10T17:09:08.416Z,22.62
2018-09-10T17:11:35.756Z,22.62
2018-09-10T17:14:03.326Z,22.39
2018-09-10T17:16:30.547Z,21.89
2018-09-10T17:18:57.741Z,21.89
2018-09-10T17:21:25.082Z,21.98
2018-09-10T17:23:52.417Z,22.15
2018-09-10T17:26:19.568Z,22.27
2018-09-10T17:28:46.805Z,22.14
2018-09-10T17:31:14.012Z,21.96
2018-09-10T17:33:41.244Z,21.79
2018-09-10T17:36:08.644Z,21.75
2018-09-10T17:38:35.960Z,21.52
2018-09-10T17:41:03.180Z,21.17
2018-09-10T17:43:30.421Z,20.96
2018-09-10T17:45:57.653Z,21.09
2018-09-10T17:48:25.324Z,21.14
2018-09-10T17:50:52.513Z,21.12
2018-09-10T17:53:19.875Z,21.10
2018-09-10T17:55:47.089Z,20.93
2018-09-10T17:58:14.404Z,20.88
2018-09-10T18:00:44.919Z,20.92
2018-09-10T18:03:12.092Z,20.83
2018-09-10T18:05:39.325Z,20.78
2018-09-10T18:08:06.643Z,20.82
2018-09-10T18:10:33.879Z,20.36
2018-09-10T18:13:01.117Z,19.94
2018-09-10T18:15:28.388Z,20.24
2018-09-10T18:17:55.635Z,20.28
2018-09-10T18:20:22.851Z,20.13
2018-09-10T18:22:50.071Z,20.24
2018-09-10T18:25:17.229Z,20.18
2018-09-10T18:27:45.091Z,20.16
2018-09-10T18:30:12.344Z,20.07
2018-09-10T18:32:39.572Z,20.00
2018-09-10T18:35:06.833Z,20.01
2018-09-10T18:37:34.153Z,20.09
2018-09-10T18:40:01.558Z,19.99
2018-09-10T18:42:28.753Z,19.96
2018-09-10T18:44:55.937Z,19.75
2018-09-10T18:47:23.089Z,19.64
2018-09-10T18:49:50.371Z,19.66
2018-09-10T18:52:17.603Z,19.60
2018-09-10T18:54:44.826Z,19.58
2018-09-10T18:57:12.130Z,19.42
2018-09-10T18:59:39.415Z,19.49
2018-09-10T19:02:06.738Z,19.07
2018-09-10T19:04:34.148Z,18.98
2018-09-10T19:07:01.408Z,19.05
2018-09-10T19:09:28.896Z,18.99
2018-09-10T19:11:56.218Z,18.81
2018-09-10T19:14:23.430Z,18.99
2018-09-10T19:16:50.673Z,18.86
2018-09-10T19:19:17.930Z,18.68
2018-09-10T19:21:45.133Z,18.64
2018-09-10T19:24:12.612Z,18.87
2018-09-10T19:26:39.786Z,18.87
2018-09-10T19:29:07.024Z,19.03
2018-09-10T19:31:34.974Z,18.88
2018-09-10T19:34:02.214Z,18.75
2018-09-10T19:36:29.498Z,18.66
2018-09-10T19:38:56.705Z,18.65
2018-09-10T19:41:23.968Z,18.60
2018-09-10T19:43:51.265Z,18.08
2018-09-10T19:46:18.522Z,17.89
2018-09-10T19:48:45.645Z,18.11
2018-09-10T19:51:13.716Z,18.24
2018-09-10T19:53:40.993Z,18.22
2018-09-10T19:56:08.180Z,18.19
2018-09-10T19:58:35.338Z,17.56
2018-09-10T20:01:02.622Z,17.74
2018-09-10T20:03:31.116Z,17.68
2018-09-10T20:05:58.908Z,17.63
2018-09-10T20:08:26.222Z,17.51
2018-09-10T20:10:53.652Z,17.54
2018-09-10T20:13:20.981Z,17.65
2018-09-10T20:15:48.335Z,17.37
2018-09-10T20:18:15.651Z,17.34
2018-09-10T20:20:42.833Z,17.66
2018-09-10T20:23:10.347Z,17.91
2018-09-10T20:25:37.625Z,17.89
2018-09-10T20:28:04.820Z,17.60
2018-09-10T20:30:32.190Z,17.66
2018-09-10T20:32:59.417Z,17.83
2018-09-10T20:35:26.600Z,17.77
2018-09-10T20:37:53.868Z,17.76
2018-09-10T20:40:21.125Z,17.71
2018-09-10T20:42:48.444Z,17.28
2018-09-10T20:45:15.731Z,17.36
2018-09-10T20:47:43.064Z,17.31
2018-09-10T20:50:10.405Z,17.20
2018-09-10T20:52:37.636Z,17.16
2018-09-10T20:55:05.048Z,17.27
2018-09-10T20:57:32.440Z,17.40
2018-09-10T20:59:59.793Z,17.31
2018-09-10T21:02:27.008Z,17.26
2018-09-10T21:04:54.225Z,17.01
2018-09-10T21:07:21.374Z,16.98
2018-09-10T21:09:48.609Z,17.10
2018-09-10T21:12:15.806Z,17.11
2018-09-10T21:14:42.983Z,16.98
2018-09-10T21:17:10.282Z,16.85
2018-09-10T21:19:38.439Z,16.42
2018-09-10T21:22:05.605Z,16.63
2018-09-10T21:24:33.477Z,16.34
2018-09-10T21:27:00.920Z,16.34
2018-09-10T21:29:28.085Z,16.55
2018-09-10T21:31:55.308Z,16.71
2018-09-10T21:34:22.708Z,16.74
2018-09-10T21:36:49.850Z,16.50
2018-09-10T21:39:17.040Z,16.52
2018-09-10T21:41:44.331Z,16.59
2018-09-10T21:44:11.432Z,16.67
2018-09-10T21:46:38.561Z,16.63
2018-09-10T21:49:05.722Z,16.40
2018-09-10T21:51:32.886Z,16.33
2018-09-10T21:54:00.188Z,16.35
2018-09-10T21:56:27.480Z,16.30
2018-09-10T21:58:54.648Z,16.30
2018-09-10T22:01:21.876Z,16.29
2018-09-10T22:03:49.037Z,16.09
2018-09-10T22:06:16.240Z,15.91
2018-09-10T22:08:43.559Z,15.93
2018-09-10T22:11:10.693Z,16.07
2018-09-10T22:13:37.974Z,16.15
2018-09-10T22:16:05.136Z,16.25
2018-09-10T22:18:32.329Z,16.15
2018-09-10T22:20:59.721Z,16.09
2018-09-10T22:23:26.872Z,16.23
2018-09-10T22:25:54.010Z,16.10
2018-09-10T22:28:21.253Z,16.04
2018-09-10T22:30:48.421Z,15.92
2018-09-10T22:33:15.627Z,15.98
2018-09-10T22:35:42.925Z,15.96
2018-09-10T22:38:10.048Z,16.02
2018-09-10T22:40:37.217Z,15.81
2018-09-10T22:43:04.505Z,15.44
2018-09-10T22:45:31.677Z,15.53
2018-09-10T22:47:58.841Z,15.59
2018-09-10T22:50:25.983Z,15.62
2018-09-10T22:52:53.102Z,15.71
2018-09-10T22:55:20.223Z,15.69
2018-09-10T22:57:47.402Z,15.80
2018-09-10T23:00:14.751Z,15.31
2018-09-10T23:02:42.133Z,15.17
2018-09-10T23:05:09.228Z,15.03
2018-09-10T23:07:36.553Z,15.38
2018-09-10T23:10:05.316Z,15.54
2018-09-10T23:12:32.435Z,15.69
2018-09-10T23:14:59.565Z,15.80
2018-09-10T23:17:26.749Z,15.94
2018-09-10T23:19:53.886Z,15.89
2018-09-10T23:22:21.096Z,15.84
2018-09-10T23:24:48.249Z,15.79
2018-09-10T23:27:15.380Z,15.85
2018-09-10T23:29:42.752Z,15.90
2018-09-10T23:32:09.984Z,15.93
2018-09-10T23:34:37.121Z,15.76
2018-09-10T23:37:04.438Z,15.60
2018-09-10T23:39:31.653Z,15.71
2018-09-10T23:41:58.813Z,15.61
2018-09-10T23:44:26.092Z,15.69
2018-09-10T23:46:53.278Z,15.88
2018-09-10T23:49:20.529Z,15.79
2018-09-10T23:51:47.748Z,15.63
2018-09-10T23:54:14.900Z,15.68
2018-09-10T23:56:42.223Z,15.66
2018-09-10T23:59:09.501Z,15.61
